sensor_id;sensor_type;location;lat;lon;timestamp;P1;durP1;ratioP1;P2;durP2;ratioP2
24637;SDS011;12773;50.162;8.548;2023-08-12T00:02:34;9.68;;;4.42;;
24637;SDS011;12773;50.162;8.548;2023-08-12T00:05:22;9.23;;;4.58;;
24637;SDS011;12773;50.162;8.548;2023-08-12T00:08:10;7.10;;;4.03;;
24637;SDS011;12773;50.162;8.548;2023-08-12T00:10:57;7.30;;;4.62;;
24637;SDS011;12773;50.162;8.548;2023-08-12T00:13:45;10.23;;;4.15;;
24637;SDS011;12773;50.162;8.548;2023-08-12T00:16:32;5.22;;;4.40;;
24637;SDS011;12773;50.162;8.548;2023-08-12T00:19:20;6.10;;;4.30;;
24637;SDS011;12773;50.162;8.548;2023-08-12T00:22:07;6.62;;;4.10;;
24637;SDS011;12773;50.162;8.548;2023-08-12T00:24:55;6.65;;;4.30;;
24637;SDS011;12773;50.162;8.548;2023-08-12T00:27:42;5.12;;;3.95;;
24637;SDS011;12773;50.162;8.548;2023-08-12T00:30:30;7.10;;;4.03;;
24637;SDS011;12773;50.162;8.548;2023-08-12T00:33:17;5.80;;;4.35;;
24637;SDS011;12773;50.162;8.548;2023-08-12T00:36:05;6.70;;;4.17;;
24637;SDS011;12773;50.162;8.548;2023-08-12T00:38:52;7.60;;;4.40;;
24637;SDS011;12773;50.162;8.548;2023-08-12T00:41:40;8.65;;;4.40;;
24637;SDS011;12773;50.162;8.548;2023-08-12T00:44:28;6.72;;;4.50;;
24637;SDS011;12773;50.162;8.548;2023-08-12T00:47:15;5.80;;;4.30;;
24637;SDS011;12773;50.162;8.548;2023-08-12T00:50:03;4.83;;;4.33;;
24637;SDS011;12773;50.162;8.548;2023-08-12T00:52:51;8.43;;;4.65;;
24637;SDS011;12773;50.162;8.548;2023-08-12T00:55:39;6.10;;;4.20;;
24637;SDS011;12773;50.162;8.548;2023-08-12T00:58:26;6.62;;;4.20;;
24637;SDS011;12773;50.162;8.548;2023-08-12T01:01:14;8.83;;;4.53;;
24637;SDS011;12773;50.162;8.548;2023-08-12T01:04:03;7.22;;;4.22;;
24637;SDS011;12773;50.162;8.548;2023-08-12T01:06:51;11.80;;;4.45;;
24637;SDS011;12773;50.162;8.548;2023-08-12T01:09:38;11.18;;;5.03;;
24637;SDS011;12773;50.162;8.548;2023-08-12T01:12:32;7.22;;;4.85;;
24637;SDS011;12773;50.162;8.548;2023-08-12T01:15:23;5.97;;;4.42;;
24637;SDS011;12773;50.162;8.548;2023-08-12T01:18:12;8.23;;;4.37;;
24637;SDS011;12773;50.162;8.548;2023-08-12T01:21:01;7.62;;;4.47;;
24637;SDS011;12773;50.162;8.548;2023-08-12T01:23:49;7.37;;;4.53;;
24637;SDS011;12773;50.162;8.548;2023-08-12T01:26:37;8.65;;;4.92;;
24637;SDS011;12773;50.162;8.548;2023-08-12T01:29:24;6.47;;;4.30;;
24637;SDS011;12773;50.162;8.548;2023-08-12T01:32:22;7.05;;;4.83;;
24637;SDS011;12773;50.162;8.548;2023-08-12T01:35:17;7.42;;;4.47;;
24637;SDS011;12773;50.162;8.548;2023-08-12T01:38:05;6.25;;;4.37;;
24637;SDS011;12773;50.162;8.548;2023-08-12T01:40:54;8.95;;;4.75;;
24637;SDS011;12773;50.162;8.548;2023-08-12T01:43:42;9.43;;;4.85;;
24637;SDS011;12773;50.162;8.548;2023-08-12T01:46:30;8.88;;;4.80;;
24637;SDS011;12773;50.162;8.548;2023-08-12T01:49:18;10.32;;;4.45;;
24637;SDS011;12773;50.162;8.548;2023-08-12T01:52:06;7.10;;;4.58;;
24637;SDS011;12773;50.162;8.548;2023-08-12T01:54:54;6.20;;;4.53;;
24637;SDS011;12773;50.162;8.548;2023-08-12T01:57:41;8.00;;;4.70;;
24637;SDS011;12773;50.162;8.548;2023-08-12T02:00:29;6.78;;;4.33;;
24637;SDS011;12773;50.162;8.548;2023-08-12T02:03:16;8.98;;;3.55;;
24637;SDS011;12773;50.162;8.548;2023-08-12T02:06:04;9.13;;;4.55;;
24637;SDS011;12773;50.162;8.548;2023-08-12T02:08:52;6.08;;;4.17;;
24637;SDS011;12773;50.162;8.548;2023-08-12T02:11:39;5.92;;;4.05;;
24637;SDS011;12773;50.162;8.548;2023-08-12T02:14:26;5.58;;;3.77;;
24637;SDS011;12773;50.162;8.548;2023-08-12T02:17:14;9.53;;;4.28;;
24637;SDS011;12773;50.162;8.548;2023-08-12T02:20:02;7.85;;;4.22;;
24637;SDS011;12773;50.162;8.548;2023-08-12T02:22:49;5.83;;;4.50;;
24637;SDS011;12773;50.162;8.548;2023-08-12T02:25:37;8.60;;;4.00;;
24637;SDS011;12773;50.162;8.548;2023-08-12T02:28:25;8.23;;;4.70;;
24637;SDS011;12773;50.162;8.548;2023-08-12T02:31:14;9.30;;;4.30;;
24637;SDS011;12773;50.162;8.548;2023-08-12T02:34:02;7.00;;;4.25;;
24637;SDS011;12773;50.162;8.548;2023-08-12T02:36:50;5.55;;;4.37;;
24637;SDS011;12773;50.162;8.548;2023-08-12T02:39:37;7.90;;;4.33;;
24637;SDS011;12773;50.162;8.548;2023-08-12T02:42:26;6.90;;;4.22;;
24637;SDS011;12773;50.162;8.548;2023-08-12T02:45:13;8.05;;;4.30;;
24637;SDS011;12773;50.162;8.548;2023-08-12T02:48:01;8.50;;;4.17;;
24637;SDS011;12773;50.162;8.548;2023-08-12T02:50:48;5.95;;;4.33;;
24637;SDS011;12773;50.162;8.548;2023-08-12T02:53:36;6.70;;;4.50;;
24637;SDS011;12773;50.162;8.548;2023-08-12T02:56:25;6.50;;;4.47;;
24637;SDS011;12773;50.162;8.548;2023-08-12T02:59:12;6.08;;;4.67;;
24637;SDS011;12773;50.162;8.548;2023-08-12T03:02:00;6.00;;;4.30;;
24637;SDS011;12773;50.162;8.548;2023-08-12T03:04:49;6.75;;;4.78;;
24637;SDS011;12773;50.162;8.548;2023-08-12T03:07:36;6.37;;;4.78;;
24637;SDS011;12773;50.162;8.548;2023-08-12T03:10:25;7.47;;;4.75;;
24637;SDS011;12773;50.162;8.548;2023-08-12T03:13:13;8.50;;;5.00;;
24637;SDS011;12773;50.162;8.548;2023-08-12T03:16:00;7.37;;;4.92;;
24637;SDS011;12773;50.162;8.548;2023-08-12T03:18:48;5.72;;;4.60;;
24637;SDS011;12773;50.162;8.548;2023-08-12T03:21:35;9.40;;;5.37;;
24637;SDS011;12773;50.162;8.548;2023-08-12T03:24:25;8.48;;;6.15;;
24637;SDS011;12773;50.162;8.548;2023-08-12T03:27:13;7.70;;;5.97;;
24637;SDS011;12773;50.162;8.548;2023-08-12T03:30:00;12.47;;;7.55;;
24637;SDS011;12773;50.162;8.548;2023-08-12T03:32:49;11.10;;;7.47;;
24637;SDS011;12773;50.162;8.548;2023-08-12T03:35:44;11.80;;;7.62;;
24637;SDS011;12773;50.162;8.548;2023-08-12T03:38:34;10.70;;;7.25;;
24637;SDS011;12773;50.162;8.548;2023-08-12T03:41:22;9.38;;;7.40;;
24637;SDS011;12773;50.162;8.548;2023-08-12T03:44:09;11.65;;;7.30;;
24637;SDS011;12773;50.162;8.548;2023-08-12T03:46:56;10.78;;;6.97;;
24637;SDS011;12773;50.162;8.548;2023-08-12T03:49:44;11.48;;;8.40;;
24637;SDS011;12773;50.162;8.548;2023-08-12T03:52:31;12.35;;;7.35;;
24637;SDS011;12773;50.162;8.548;2023-08-12T03:55:18;11.97;;;7.85;;
24637;SDS011;12773;50.162;8.548;2023-08-12T03:58:06;10.72;;;7.50;;
24637;SDS011;12773;50.162;8.548;2023-08-12T04:00:55;10.00;;;7.22;;
24637;SDS011;12773;50.162;8.548;2023-08-12T04:03:42;11.15;;;7.12;;
24637;SDS011;12773;50.162;8.548;2023-08-12T04:06:30;10.45;;;7.67;;
24637;SDS011;12773;50.162;8.548;2023-08-12T04:09:17;8.30;;;6.60;;
24637;SDS011;12773;50.162;8.548;2023-08-12T04:12:05;10.35;;;6.55;;
24637;SDS011;12773;50.162;8.548;2023-08-12T04:14:54;8.68;;;6.90;;
24637;SDS011;12773;50.162;8.548;2023-08-12T04:17:41;10.78;;;7.40;;
24637;SDS011;12773;50.162;8.548;2023-08-12T04:20:30;10.58;;;7.55;;
24637;SDS011;12773;50.162;8.548;2023-08-12T04:23:21;10.70;;;7.47;;
24637;SDS011;12773;50.162;8.548;2023-08-12T04:26:09;14.33;;;7.47;;
24637;SDS011;12773;50.162;8.548;2023-08-12T04:28:56;9.68;;;6.78;;
24637;SDS011;12773;50.162;8.548;2023-08-12T04:31:43;9.80;;;6.92;;
24637;SDS011;12773;50.162;8.548;2023-08-12T04:34:31;10.82;;;7.50;;
24637;SDS011;12773;50.162;8.548;2023-08-12T04:37:18;8.93;;;6.60;;
24637;SDS011;12773;50.162;8.548;2023-08-12T04:40:06;10.70;;;7.03;;
24637;SDS011;12773;50.162;8.548;2023-08-12T04:42:58;9.33;;;7.25;;
24637;SDS011;12773;50.162;8.548;2023-08-12T04:45:47;8.83;;;6.42;;
24637;SDS011;12773;50.162;8.548;2023-08-12T04:48:34;10.45;;;7.22;;
24637;SDS011;12773;50.162;8.548;2023-08-12T04:51:22;12.15;;;7.12;;
24637;SDS011;12773;50.162;8.548;2023-08-12T04:54:10;9.68;;;6.67;;
24637;SDS011;12773;50.162;8.548;2023-08-12T04:56:58;10.58;;;6.85;;
24637;SDS011;12773;50.162;8.548;2023-08-12T04:59:45;10.28;;;7.30;;
24637;SDS011;12773;50.162;8.548;2023-08-12T05:02:33;10.80;;;7.62;;
24637;SDS011;12773;50.162;8.548;2023-08-12T05:05:21;9.15;;;6.83;;
24637;SDS011;12773;50.162;8.548;2023-08-12T05:08:11;10.28;;;7.12;;
24637;SDS011;12773;50.162;8.548;2023-08-12T05:10:59;12.30;;;6.80;;
24637;SDS011;12773;50.162;8.548;2023-08-12T05:13:46;10.80;;;7.17;;
24637;SDS011;12773;50.162;8.548;2023-08-12T05:16:34;10.32;;;7.42;;
24637;SDS011;12773;50.162;8.548;2023-08-12T05:19:22;14.15;;;7.35;;
24637;SDS011;12773;50.162;8.548;2023-08-12T05:22:09;10.58;;;7.87;;
24637;SDS011;12773;50.162;8.548;2023-08-12T05:24:57;12.30;;;8.20;;
24637;SDS011;12773;50.162;8.548;2023-08-12T05:27:45;14.13;;;8.35;;
24637;SDS011;12773;50.162;8.548;2023-08-12T05:30:33;12.45;;;8.80;;
24637;SDS011;12773;50.162;8.548;2023-08-12T05:33:20;12.05;;;8.48;;
24637;SDS011;12773;50.162;8.548;2023-08-12T05:36:11;13.32;;;7.75;;
24637;SDS011;12773;50.162;8.548;2023-08-12T05:38:58;14.55;;;8.53;;
24637;SDS011;12773;50.162;8.548;2023-08-12T05:41:45;11.10;;;8.58;;
24637;SDS011;12773;50.162;8.548;2023-08-12T05:44:33;14.03;;;8.25;;
24637;SDS011;12773;50.162;8.548;2023-08-12T05:47:20;11.78;;;8.60;;
24637;SDS011;12773;50.162;8.548;2023-08-12T05:50:11;13.65;;;9.08;;
24637;SDS011;12773;50.162;8.548;2023-08-12T05:53:01;13.15;;;9.63;;
24637;SDS011;12773;50.162;8.548;2023-08-12T05:55:48;15.38;;;9.75;;
24637;SDS011;12773;50.162;8.548;2023-08-12T05:58:36;11.95;;;8.98;;
24637;SDS011;12773;50.162;8.548;2023-08-12T06:01:26;14.93;;;9.08;;
24637;SDS011;12773;50.162;8.548;2023-08-12T06:04:13;15.35;;;8.70;;
24637;SDS011;12773;50.162;8.548;2023-08-12T06:07:00;15.38;;;8.95;;
24637;SDS011;12773;50.162;8.548;2023-08-12T06:09:48;11.73;;;7.75;;
24637;SDS011;12773;50.162;8.548;2023-08-12T06:12:36;10.75;;;7.42;;
24637;SDS011;12773;50.162;8.548;2023-08-12T06:15:23;13.10;;;8.25;;
24637;SDS011;12773;50.162;8.548;2023-08-12T06:18:11;10.90;;;7.70;;
24637;SDS011;12773;50.162;8.548;2023-08-12T06:20:59;10.25;;;7.87;;
24637;SDS011;12773;50.162;8.548;2023-08-12T06:23:46;15.10;;;8.33;;
24637;SDS011;12773;50.162;8.548;2023-08-12T06:26:33;14.43;;;8.28;;
24637;SDS011;12773;50.162;8.548;2023-08-12T06:29:21;13.25;;;8.85;;
24637;SDS011;12773;50.162;8.548;2023-08-12T06:32:08;10.65;;;7.70;;
24637;SDS011;12773;50.162;8.548;2023-08-12T06:34:58;13.85;;;8.75;;
24637;SDS011;12773;50.162;8.548;2023-08-12T06:37:45;11.85;;;8.83;;
24637;SDS011;12773;50.162;8.548;2023-08-12T06:40:32;13.08;;;8.65;;
24637;SDS011;12773;50.162;8.548;2023-08-12T06:43:20;10.88;;;8.30;;
24637;SDS011;12773;50.162;8.548;2023-08-12T06:46:10;10.10;;;7.70;;
24637;SDS011;12773;50.162;8.548;2023-08-12T06:48:57;14.25;;;8.43;;
24637;SDS011;12773;50.162;8.548;2023-08-12T06:51:45;15.50;;;8.78;;
24637;SDS011;12773;50.162;8.548;2023-08-12T06:54:32;12.10;;;9.05;;
24637;SDS011;12773;50.162;8.548;2023-08-12T06:57:20;12.93;;;9.53;;
24637;SDS011;12773;50.162;8.548;2023-08-12T07:00:07;13.95;;;10.08;;
24637;SDS011;12773;50.162;8.548;2023-08-12T07:02:55;14.58;;;9.28;;
24637;SDS011;12773;50.162;8.548;2023-08-12T07:05:43;14.78;;;9.98;;
24637;SDS011;12773;50.162;8.548;2023-08-12T07:08:30;11.85;;;8.78;;
24637;SDS011;12773;50.162;8.548;2023-08-12T07:11:18;12.00;;;8.73;;
24637;SDS011;12773;50.162;8.548;2023-08-12T07:14:05;11.53;;;8.15;;
24637;SDS011;12773;50.162;8.548;2023-08-12T07:16:53;9.23;;;7.58;;
24637;SDS011;12773;50.162;8.548;2023-08-12T07:19:41;13.05;;;7.85;;
24637;SDS011;12773;50.162;8.548;2023-08-12T07:22:29;9.98;;;7.03;;
24637;SDS011;12773;50.162;8.548;2023-08-12T07:25:16;10.98;;;7.50;;
24637;SDS011;12773;50.162;8.548;2023-08-12T07:28:04;10.40;;;7.40;;
24637;SDS011;12773;50.162;8.548;2023-08-12T07:30:52;9.45;;;8.10;;
24637;SDS011;12773;50.162;8.548;2023-08-12T07:33:40;13.93;;;8.18;;
24637;SDS011;12773;50.162;8.548;2023-08-12T07:36:27;10.30;;;8.10;;
24637;SDS011;12773;50.162;8.548;2023-08-12T07:39:14;10.93;;;7.00;;
24637;SDS011;12773;50.162;8.548;2023-08-12T07:42:02;12.90;;;8.45;;
24637;SDS011;12773;50.162;8.548;2023-08-12T07:44:49;10.28;;;7.37;;
24637;SDS011;12773;50.162;8.548;2023-08-12T07:47:37;12.00;;;7.12;;
24637;SDS011;12773;50.162;8.548;2023-08-12T07:50:25;12.05;;;6.92;;
24637;SDS011;12773;50.162;8.548;2023-08-12T07:53:12;10.78;;;6.58;;
24637;SDS011;12773;50.162;8.548;2023-08-12T07:56:00;9.50;;;7.10;;
24637;SDS011;12773;50.162;8.548;2023-08-12T07:58:47;9.63;;;7.58;;
24637;SDS011;12773;50.162;8.548;2023-08-12T08:01:35;8.68;;;6.37;;
24637;SDS011;12773;50.162;8.548;2023-08-12T08:04:23;12.37;;;6.80;;
24637;SDS011;12773;50.162;8.548;2023-08-12T08:07:11;10.48;;;7.10;;
24637;SDS011;12773;50.162;8.548;2023-08-12T08:09:59;11.28;;;7.37;;
24637;SDS011;12773;50.162;8.548;2023-08-12T08:12:46;12.40;;;8.08;;
24637;SDS011;12773;50.162;8.548;2023-08-12T08:15:34;13.88;;;8.60;;
24637;SDS011;12773;50.162;8.548;2023-08-12T08:18:22;12.58;;;7.53;;
24637;SDS011;12773;50.162;8.548;2023-08-12T08:21:09;9.33;;;7.25;;
24637;SDS011;12773;50.162;8.548;2023-08-12T08:23:57;8.58;;;7.17;;
24637;SDS011;12773;50.162;8.548;2023-08-12T08:26:44;11.73;;;7.80;;
24637;SDS011;12773;50.162;8.548;2023-08-12T08:29:32;10.80;;;7.37;;
24637;SDS011;12773;50.162;8.548;2023-08-12T08:32:20;11.38;;;7.62;;
24637;SDS011;12773;50.162;8.548;2023-08-12T08:35:07;9.78;;;7.55;;
24637;SDS011;12773;50.162;8.548;2023-08-12T08:37:55;11.88;;;7.40;;
24637;SDS011;12773;50.162;8.548;2023-08-12T08:40:42;10.03;;;7.08;;
24637;SDS011;12773;50.162;8.548;2023-08-12T08:43:30;10.60;;;7.62;;
24637;SDS011;12773;50.162;8.548;2023-08-12T08:46:21;10.45;;;7.42;;
24637;SDS011;12773;50.162;8.548;2023-08-12T08:49:08;16.40;;;8.80;;
24637;SDS011;12773;50.162;8.548;2023-08-12T08:51:58;9.40;;;7.95;;
24637;SDS011;12773;50.162;8.548;2023-08-12T08:54:46;9.40;;;7.33;;
24637;SDS011;12773;50.162;8.548;2023-08-12T08:57:37;15.80;;;9.60;;
24637;SDS011;12773;50.162;8.548;2023-08-12T09:00:26;12.45;;;7.47;;
24637;SDS011;12773;50.162;8.548;2023-08-12T09:03:15;12.13;;;9.20;;
24637;SDS011;12773;50.162;8.548;2023-08-12T09:06:04;12.43;;;9.15;;
24637;SDS011;12773;50.162;8.548;2023-08-12T09:08:55;11.88;;;9.98;;
24637;SDS011;12773;50.162;8.548;2023-08-12T09:11:43;16.32;;;11.20;;
24637;SDS011;12773;50.162;8.548;2023-08-12T09:14:31;10.20;;;7.65;;
24637;SDS011;12773;50.162;8.548;2023-08-12T09:17:19;8.28;;;6.97;;
24637;SDS011;12773;50.162;8.548;2023-08-12T09:20:06;10.50;;;7.78;;
24637;SDS011;12773;50.162;8.548;2023-08-12T09:22:57;10.82;;;7.37;;
24637;SDS011;12773;50.162;8.548;2023-08-12T09:25:45;12.15;;;8.05;;
24637;SDS011;12773;50.162;8.548;2023-08-12T09:28:32;12.75;;;9.40;;
24637;SDS011;12773;50.162;8.548;2023-08-12T09:31:23;12.28;;;9.78;;
24637;SDS011;12773;50.162;8.548;2023-08-12T09:34:12;11.03;;;8.00;;
24637;SDS011;12773;50.162;8.548;2023-08-12T09:37:00;21.85;;;9.03;;
24637;SDS011;12773;50.162;8.548;2023-08-12T09:39:49;12.98;;;9.60;;
24637;SDS011;12773;50.162;8.548;2023-08-12T09:42:43;14.13;;;9.08;;
24637;SDS011;12773;50.162;8.548;2023-08-12T09:45:27;10.95;;;8.80;;
24637;SDS011;12773;50.162;8.548;2023-08-12T09:48:16;14.23;;;8.73;;
24637;SDS011;12773;50.162;8.548;2023-08-12T09:51:04;12.50;;;9.38;;
24637;SDS011;12773;50.162;8.548;2023-08-12T09:53:51;14.23;;;11.05;;
24637;SDS011;12773;50.162;8.548;2023-08-12T09:56:39;10.05;;;7.78;;
24637;SDS011;12773;50.162;8.548;2023-08-12T09:59:31;10.00;;;7.72;;
24637;SDS011;12773;50.162;8.548;2023-08-12T10:02:21;8.88;;;7.25;;
24637;SDS011;12773;50.162;8.548;2023-08-12T10:05:09;8.95;;;5.75;;
24637;SDS011;12773;50.162;8.548;2023-08-12T10:07:59;6.97;;;5.90;;
24637;SDS011;12773;50.162;8.548;2023-08-12T10:10:48;7.00;;;5.12;;
24637;SDS011;12773;50.162;8.548;2023-08-12T10:13:37;8.43;;;5.47;;
24637;SDS011;12773;50.162;8.548;2023-08-12T10:16:26;6.10;;;5.12;;
24637;SDS011;12773;50.162;8.548;2023-08-12T10:19:16;7.60;;;5.80;;
24637;SDS011;12773;50.162;8.548;2023-08-12T10:22:06;8.10;;;6.08;;
24637;SDS011;12773;50.162;8.548;2023-08-12T10:25:07;10.60;;;7.22;;
24637;SDS011;12773;50.162;8.548;2023-08-12T10:27:55;12.73;;;7.45;;
24637;SDS011;12773;50.162;8.548;2023-08-12T10:30:42;9.33;;;7.15;;
24637;SDS011;12773;50.162;8.548;2023-08-12T10:33:38;11.50;;;6.92;;
24637;SDS011;12773;50.162;8.548;2023-08-12T10:36:27;14.30;;;9.13;;
24637;SDS011;12773;50.162;8.548;2023-08-12T10:39:15;13.15;;;8.83;;
24637;SDS011;12773;50.162;8.548;2023-08-12T10:42:02;11.30;;;7.62;;
24637;SDS011;12773;50.162;8.548;2023-08-12T10:44:50;13.28;;;8.75;;
24637;SDS011;12773;50.162;8.548;2023-08-12T10:48:09;14.07;;;9.88;;
24637;SDS011;12773;50.162;8.548;2023-08-12T10:50:54;15.05;;;9.40;;
24637;SDS011;12773;50.162;8.548;2023-08-12T10:53:43;15.17;;;8.97;;
24637;SDS011;12773;50.162;8.548;2023-08-12T10:57:03;13.38;;;9.33;;
24637;SDS011;12773;50.162;8.548;2023-08-12T11:02:33;13.50;;;9.68;;
24637;SDS011;12773;50.162;8.548;2023-08-12T11:05:23;16.00;;;11.50;;
24637;SDS011;12773;50.162;8.548;2023-08-12T11:08:11;17.20;;;11.78;;
24637;SDS011;12773;50.162;8.548;2023-08-12T11:11:00;19.45;;;13.75;;
24637;SDS011;12773;50.162;8.548;2023-08-12T11:13:58;28.67;;;14.13;;
24637;SDS011;12773;50.162;8.548;2023-08-12T11:16:45;20.10;;;12.73;;
24637;SDS011;12773;50.162;8.548;2023-08-12T11:19:35;19.42;;;12.98;;
24637;SDS011;12773;50.162;8.548;2023-08-12T11:22:23;20.20;;;13.50;;
24637;SDS011;12773;50.162;8.548;2023-08-12T11:25:12;19.98;;;14.30;;
24637;SDS011;12773;50.162;8.548;2023-08-12T11:28:02;18.20;;;12.53;;
24637;SDS011;12773;50.162;8.548;2023-08-12T11:30:51;15.35;;;12.43;;
24637;SDS011;12773;50.162;8.548;2023-08-12T11:33:39;17.25;;;11.40;;
24637;SDS011;12773;50.162;8.548;2023-08-12T11:36:28;15.60;;;10.05;;
24637;SDS011;12773;50.162;8.548;2023-08-12T11:39:17;8.35;;;6.95;;
24637;SDS011;12773;50.162;8.548;2023-08-12T11:42:04;10.28;;;7.00;;
24637;SDS011;12773;50.162;8.548;2023-08-12T11:44:52;13.28;;;8.13;;
24637;SDS011;12773;50.162;8.548;2023-08-12T11:47:40;12.55;;;9.00;;
24637;SDS011;12773;50.162;8.548;2023-08-12T11:50:28;12.60;;;8.48;;
24637;SDS011;12773;50.162;8.548;2023-08-12T11:53:16;9.20;;;6.15;;
24637;SDS011;12773;50.162;8.548;2023-08-12T11:56:03;7.72;;;5.80;;
24637;SDS011;12773;50.162;8.548;2023-08-12T11:58:51;8.40;;;5.10;;
24637;SDS011;12773;50.162;8.548;2023-08-12T12:01:39;7.20;;;5.37;;
24637;SDS011;12773;50.162;8.548;2023-08-12T12:04:30;10.70;;;5.20;;
24637;SDS011;12773;50.162;8.548;2023-08-12T12:07:23;6.62;;;4.40;;
24637;SDS011;12773;50.162;8.548;2023-08-12T12:10:12;7.17;;;4.62;;
24637;SDS011;12773;50.162;8.548;2023-08-12T12:13:01;5.30;;;4.10;;
24637;SDS011;12773;50.162;8.548;2023-08-12T12:15:51;7.70;;;4.67;;
24637;SDS011;12773;50.162;8.548;2023-08-12T12:18:39;10.68;;;4.85;;
24637;SDS011;12773;50.162;8.548;2023-08-12T12:21:27;7.83;;;4.40;;
24637;SDS011;12773;50.162;8.548;2023-08-12T12:24:15;5.50;;;3.67;;
24637;SDS011;12773;50.162;8.548;2023-08-12T12:27:09;6.47;;;3.83;;
24637;SDS011;12773;50.162;8.548;2023-08-12T12:29:53;4.83;;;3.58;;
24637;SDS011;12773;50.162;8.548;2023-08-12T12:32:41;6.72;;;3.50;;
24637;SDS011;12773;50.162;8.548;2023-08-12T12:35:29;6.80;;;3.62;;
24637;SDS011;12773;50.162;8.548;2023-08-12T12:38:18;4.87;;;3.10;;
24637;SDS011;12773;50.162;8.548;2023-08-12T12:41:06;9.60;;;4.10;;
24637;SDS011;12773;50.162;8.548;2023-08-12T12:43:53;7.92;;;4.00;;
24637;SDS011;12773;50.162;8.548;2023-08-12T12:46:41;6.87;;;4.10;;
24637;SDS011;12773;50.162;8.548;2023-08-12T12:49:29;6.10;;;3.80;;
24637;SDS011;12773;50.162;8.548;2023-08-12T12:52:16;7.15;;;3.80;;
24637;SDS011;12773;50.162;8.548;2023-08-12T12:55:04;4.90;;;3.85;;
24637;SDS011;12773;50.162;8.548;2023-08-12T12:57:51;4.47;;;3.62;;
24637;SDS011;12773;50.162;8.548;2023-08-12T13:00:39;6.47;;;3.85;;
24637;SDS011;12773;50.162;8.548;2023-08-12T13:03:26;5.83;;;3.50;;
24637;SDS011;12773;50.162;8.548;2023-08-12T13:06:14;6.53;;;3.70;;
24637;SDS011;12773;50.162;8.548;2023-08-12T13:09:01;4.80;;;3.52;;
24637;SDS011;12773;50.162;8.548;2023-08-12T13:11:50;6.12;;;3.70;;
24637;SDS011;12773;50.162;8.548;2023-08-12T13:14:38;6.67;;;4.20;;
24637;SDS011;12773;50.162;8.548;2023-08-12T13:17:25;3.87;;;3.37;;
24637;SDS011;12773;50.162;8.548;2023-08-12T13:20:13;6.15;;;3.42;;
24637;SDS011;12773;50.162;8.548;2023-08-12T13:23:01;6.80;;;3.70;;
24637;SDS011;12773;50.162;8.548;2023-08-12T13:25:48;6.55;;;3.47;;
24637;SDS011;12773;50.162;8.548;2023-08-12T13:28:36;6.10;;;3.02;;
24637;SDS011;12773;50.162;8.548;2023-08-12T13:31:24;5.72;;;3.40;;
24637;SDS011;12773;50.162;8.548;2023-08-12T13:34:11;4.58;;;3.42;;
24637;SDS011;12773;50.162;8.548;2023-08-12T13:36:59;5.22;;;3.08;;
24637;SDS011;12773;50.162;8.548;2023-08-12T13:39:46;5.75;;;3.02;;
24637;SDS011;12773;50.162;8.548;2023-08-12T13:42:34;7.78;;;3.80;;
24637;SDS011;12773;50.162;8.548;2023-08-12T13:45:21;5.50;;;3.00;;
24637;SDS011;12773;50.162;8.548;2023-08-12T13:48:09;5.30;;;2.85;;
24637;SDS011;12773;50.162;8.548;2023-08-12T13:50:56;5.08;;;3.27;;
24637;SDS011;12773;50.162;8.548;2023-08-12T13:53:45;3.85;;;2.80;;
24637;SDS011;12773;50.162;8.548;2023-08-12T13:56:33;4.97;;;2.90;;
24637;SDS011;12773;50.162;8.548;2023-08-12T13:59:20;5.00;;;2.98;;
24637;SDS011;12773;50.162;8.548;2023-08-12T14:02:08;3.00;;;2.47;;
24637;SDS011;12773;50.162;8.548;2023-08-12T14:04:56;4.30;;;2.80;;
24637;SDS011;12773;50.162;8.548;2023-08-12T14:07:44;7.15;;;2.62;;
24637;SDS011;12773;50.162;8.548;2023-08-12T14:10:31;5.22;;;2.70;;
24637;SDS011;12773;50.162;8.548;2023-08-12T14:13:18;3.55;;;2.40;;
24637;SDS011;12773;50.162;8.548;2023-08-12T14:16:06;4.37;;;2.47;;
24637;SDS011;12773;50.162;8.548;2023-08-12T14:18:54;6.17;;;2.55;;
24637;SDS011;12773;50.162;8.548;2023-08-12T14:21:42;2.47;;;2.27;;
24637;SDS011;12773;50.162;8.548;2023-08-12T14:24:30;3.80;;;2.37;;
24637;SDS011;12773;50.162;8.548;2023-08-12T14:27:17;5.67;;;2.25;;
24637;SDS011;12773;50.162;8.548;2023-08-12T14:30:05;4.22;;;3.05;;
24637;SDS011;12773;50.162;8.548;2023-08-12T14:32:53;2.62;;;2.30;;
24637;SDS011;12773;50.162;8.548;2023-08-12T14:35:41;7.20;;;3.25;;
24637;SDS011;12773;50.162;8.548;2023-08-12T14:38:28;5.67;;;2.85;;
24637;SDS011;12773;50.162;8.548;2023-08-12T14:41:17;3.80;;;2.72;;
24637;SDS011;12773;50.162;8.548;2023-08-12T14:44:04;5.83;;;2.40;;
24637;SDS011;12773;50.162;8.548;2023-08-12T14:46:52;5.53;;;2.58;;
24637;SDS011;12773;50.162;8.548;2023-08-12T14:49:39;3.83;;;2.45;;
24637;SDS011;12773;50.162;8.548;2023-08-12T14:52:27;6.87;;;2.98;;
24637;SDS011;12773;50.162;8.548;2023-08-12T14:55:14;9.88;;;3.37;;
24637;SDS011;12773;50.162;8.548;2023-08-12T14:58:02;4.45;;;2.58;;
24637;SDS011;12773;50.162;8.548;2023-08-12T15:00:50;4.85;;;2.30;;
24637;SDS011;12773;50.162;8.548;2023-08-12T15:03:38;3.67;;;2.67;;
24637;SDS011;12773;50.162;8.548;2023-08-12T15:06:25;5.62;;;2.42;;
24637;SDS011;12773;50.162;8.548;2023-08-12T15:09:13;4.15;;;2.42;;
24637;SDS011;12773;50.162;8.548;2023-08-12T15:12:00;5.10;;;2.70;;
24637;SDS011;12773;50.162;8.548;2023-08-12T15:14:47;3.33;;;1.95;;
24637;SDS011;12773;50.162;8.548;2023-08-12T15:17:35;3.52;;;2.27;;
24637;SDS011;12773;50.162;8.548;2023-08-12T15:20:23;4.25;;;2.58;;
24637;SDS011;12773;50.162;8.548;2023-08-12T15:23:11;6.22;;;2.85;;
24637;SDS011;12773;50.162;8.548;2023-08-12T15:25:59;3.95;;;2.35;;
24637;SDS011;12773;50.162;8.548;2023-08-12T15:28:49;2.42;;;2.15;;
24637;SDS011;12773;50.162;8.548;2023-08-12T15:31:37;3.70;;;2.42;;
24637;SDS011;12773;50.162;8.548;2023-08-12T15:34:25;2.95;;;2.15;;
24637;SDS011;12773;50.162;8.548;2023-08-12T15:37:12;5.45;;;2.10;;
24637;SDS011;12773;50.162;8.548;2023-08-12T15:40:00;4.60;;;2.45;;
24637;SDS011;12773;50.162;8.548;2023-08-12T15:42:48;4.28;;;2.20;;
24637;SDS011;12773;50.162;8.548;2023-08-12T15:45:35;5.30;;;2.60;;
24637;SDS011;12773;50.162;8.548;2023-08-12T15:48:24;3.90;;;2.40;;
24637;SDS011;12773;50.162;8.548;2023-08-12T15:51:12;3.95;;;2.47;;
24637;SDS011;12773;50.162;8.548;2023-08-12T15:53:59;3.25;;;2.52;;
24637;SDS011;12773;50.162;8.548;2023-08-12T15:56:47;4.78;;;2.42;;
24637;SDS011;12773;50.162;8.548;2023-08-12T15:59:34;5.12;;;2.60;;
24637;SDS011;12773;50.162;8.548;2023-08-12T16:02:22;7.00;;;3.00;;
24637;SDS011;12773;50.162;8.548;2023-08-12T16:05:09;3.98;;;2.72;;
24637;SDS011;12773;50.162;8.548;2023-08-12T16:07:58;4.70;;;3.02;;
24637;SDS011;12773;50.162;8.548;2023-08-12T16:10:46;7.05;;;2.87;;
24637;SDS011;12773;50.162;8.548;2023-08-12T16:13:33;2.65;;;2.42;;
24637;SDS011;12773;50.162;8.548;2023-08-12T16:16:20;5.05;;;2.80;;
24637;SDS011;12773;50.162;8.548;2023-08-12T16:19:08;5.50;;;2.95;;
24637;SDS011;12773;50.162;8.548;2023-08-12T16:22:06;5.72;;;2.33;;
24637;SDS011;12773;50.162;8.548;2023-08-12T16:24:53;4.15;;;1.90;;
24637;SDS011;12773;50.162;8.548;2023-08-12T16:27:41;4.70;;;2.00;;
24637;SDS011;12773;50.162;8.548;2023-08-12T16:30:28;4.28;;;2.00;;
24637;SDS011;12773;50.162;8.548;2023-08-12T16:33:16;3.02;;;1.85;;
24637;SDS011;12773;50.162;8.548;2023-08-12T16:36:04;4.08;;;1.72;;
24637;SDS011;12773;50.162;8.548;2023-08-12T16:38:51;4.10;;;2.17;;
24637;SDS011;12773;50.162;8.548;2023-08-12T16:41:39;4.35;;;1.70;;
24637;SDS011;12773;50.162;8.548;2023-08-12T16:44:27;2.20;;;1.62;;
24637;SDS011;12773;50.162;8.548;2023-08-12T16:47:14;2.62;;;1.67;;
24637;SDS011;12773;50.162;8.548;2023-08-12T16:50:02;3.67;;;1.77;;